Main page
METAR-TAF:

METAR-TAF

Airports :

Castres–Mazamet Airport

Castres, France

latitude: 43-33-25N, longitude: 2-17-21E, elevation: 239 m

Current weather observation

The report was made 33 minutes ago, at 18:30 UTC
Wind 1 kt from the North
Temperature 5°C
Humidity 87%
Pressure 1017 hPa
Visibility 10 km or more
Broken clouds at a height of 1800 ft
Broken clouds at a height of 2700 ft
Overcast at a height of 3900 ft

METAR: LFCK 181830Z AUTO 35001KT 9999 BKN018 BKN027 OVC039 05/03 Q1017 BECMG OVC008

Time: 20:03 (19:03 UTC)

Forecast

The report was made 2 hours and 3 minutes ago, at 17:00 UTC
Forecast valid from 18 at 18 UTC to 19 at 03 UTC
Wind 6 kt from the West
Visibility 10 km or more
Overcast at a height of 1600 ft
Becoming
from 18 at 19 UTC to 18 at 21 UTC
Overcast at a height of 800 ft
Probability 40% :
Temporary
from 18 at 21 UTC to 19 at 03 UTC
Visibility: 3000 m
Overcast at a height of 400 ft
light drizzle

TAF: LFCK 181700Z 1818/1903 27006KT 9999 OVC016 BECMG 1819/1821 OVC008 PROB40 TEMPO 1821/1903 3000 -DZ OVC004

Weather observations and forecasts of more than 4000 airports (METAR and TAF reports).

The available stations are represented by yellow and red dots on the map.

Hover mouse over dot to see the name of the station.

Then click to see weather observations and forecasts.

To change the map : click on the green buttons with a black cross to zoom in, on the green button with a dash to zoom out, or on the green arrows for adjacent maps.


METAR-TAF: